Time;durP1;ratioP1;P1;durP2;ratioP2;P2;SDS_P1;SDS_P2;PMS_P1;PMS_P2;Temp;Humidity;BMP_temperature;BMP_pressure;BME280_temperature;BME280_humidity;BME280_pressure;Samples;Min_cycle;Max_cycle;Signal;HPM_P1;HPM_P2
2023/05/31 00:00:28;;;;;;;14.32;7.90;;;;;;;15.26;93.68;101350.19;8314832;28;20211;-60
2023/05/31 00:04:28;;;;;;;18.55;8.38;;;;;;;15.20;94.33;101350.78;8317797;28;20041;-60
2023/05/31 00:08:29;;;;;;;16.05;8.27;;;;;;;15.09;94.99;101353.69;8290606;28;20037;-60
2023/05/31 00:12:29;;;;;;;15.88;9.18;;;;;;;14.89;96.62;101357.50;8318663;28;20091;-60
2023/05/31 00:16:30;;;;;;;16.38;8.48;;;;;;;14.88;97.21;101350.31;8318309;28;20487;-60
2023/05/31 00:20:30;;;;;;;16.02;8.50;;;;;;;14.82;97.18;101359.06;8318268;28;20107;-60
2023/05/31 00:24:31;;;;;;;14.68;8.88;;;;;;;14.94;96.74;101355.16;8318760;28;20045;-60
2023/05/31 00:28:31;;;;;;;12.70;7.70;;;;;;;14.91;96.37;101360.91;8318610;28;20095;-60
2023/05/31 00:32:33;;;;;;;16.42;8.55;;;;;;;15.02;95.96;101360.72;8317955;28;20049;-60
2023/05/31 00:36:34;;;;;;;15.85;8.20;;;;;;;14.70;95.83;101362.13;8318834;28;20064;-60
2023/05/31 00:40:35;;;;;;;17.85;9.73;;;;;;;14.55;97.42;101358.97;8322040;28;20041;-60
2023/05/31 00:44:36;;;;;;;16.55;9.38;;;;;;;14.53;97.33;101350.09;8324235;28;20112;-60
2023/05/31 00:48:38;;;;;;;15.60;8.68;;;;;;;14.41;97.79;101351.28;8324140;28;20419;-60
2023/05/31 00:52:39;;;;;;;14.60;8.32;;;;;;;14.12;98.88;101355.81;8322604;28;20044;-60
2023/05/31 00:56:40;;;;;;;15.88;9.10;;;;;;;14.33;98.93;101359.28;8323469;28;20041;-60
2023/05/31 01:00:40;;;;;;;17.52;9.90;;;;;;;14.15;98.48;101360.97;8321205;28;20490;-60
2023/05/31 01:04:41;;;;;;;16.55;10.25;;;;;;;14.07;100.00;101357.25;8323150;28;20059;-60
2023/05/31 01:08:41;;;;;;;21.08;9.65;;;;;;;13.90;98.96;101366.97;8323456;28;20125;-60
2023/05/31 01:13:21;;;;;;;20.85;9.90;;;;;;;13.76;100.00;101365.50;8323037;28;20048;-60
2023/05/31 01:17:30;;;;;;;18.90;9.77;;;;;;;13.97;100.00;101367.28;8316161;28;20051;-60
2023/05/31 01:21:51;;;;;;;16.15;9.82;;;;;;;13.73;100.00;101370.38;8322867;28;20133;-60
2023/05/31 01:30:07;;;;;;;22.35;10.38;;;;;;;13.66;99.14;101363.78;8345059;27;20388;-61
2023/05/31 01:34:08;;;;;;;23.35;9.88;;;;;;;13.58;100.00;101360.91;8347712;28;20041;-60
2023/05/31 01:38:08;;;;;;;19.50;11.00;;;;;;;13.55;100.00;101355.75;8347661;28;20569;-60
2023/05/31 01:42:10;;;;;;;22.48;11.38;;;;;;;13.64;99.68;101354.91;8347130;28;20403;-61
2023/05/31 01:46:14;;;;;;;25.15;12.43;;;;;;;13.86;99.69;101362.81;8347969;28;20047;-60
2023/05/31 01:50:18;;;;;;;26.05;12.32;;;;;;;14.06;98.38;101369.97;8348187;28;20048;-61
2023/05/31 01:54:18;;;;;;;25.40;11.50;;;;;;;14.04;99.34;101373.84;8349675;28;20407;-61
2023/05/31 01:58:20;;;;;;;24.23;12.40;;;;;;;14.01;98.49;101368.69;8350510;28;20131;-61
2023/05/31 02:02:21;;;;;;;28.42;12.48;;;;;;;13.91;99.40;101368.72;8350598;28;20044;-61
2023/05/31 02:06:22;;;;;;;28.05;13.40;;;;;;;13.50;100.00;101363.44;8349124;28;20041;-60
2023/05/31 02:10:23;;;;;;;29.55;13.20;;;;;;;13.53;100.00;101357.75;8350143;28;20204;-61
2023/05/31 02:14:23;;;;;;;24.63;12.80;;;;;;;13.65;100.00;101359.34;8349359;28;20038;-60
2023/05/31 02:18:27;;;;;;;27.25;13.43;;;;;;;13.29;100.00;101365.38;8365456;28;20041;-60
2023/05/31 02:22:28;;;;;;;30.25;14.18;;;;;;;13.33;100.00;101362.25;8349187;28;20037;-60
2023/05/31 02:26:30;;;;;;;29.00;13.27;;;;;;;13.20;100.00;101360.75;8349676;28;20033;-60
2023/05/31 02:30:32;;;;;;;28.35;13.18;;;;;;;13.27;100.00;101353.81;8350173;28;20047;-60
2023/05/31 02:34:33;;;;;;;28.83;13.65;;;;;;;13.24;100.00;101362.22;8349780;28;20380;-60
2023/05/31 02:38:33;;;;;;;27.58;12.75;;;;;;;13.23;100.00;101365.91;8343668;28;20041;-60
2023/05/31 02:42:35;;;;;;;23.95;12.90;;;;;;;13.03;100.00;101370.44;8327437;28;20052;-60
2023/05/31 02:46:36;;;;;;;27.08;13.00;;;;;;;12.88;100.00;101365.44;8328232;28;20041;-60
2023/05/31 02:50:37;;;;;;;26.73;13.00;;;;;;;13.11;100.00;101361.56;8326080;28;20095;-62
2023/05/31 02:54:43;;;;;;;27.48;14.00;;;;;;;13.20;100.00;101360.75;8325787;28;20037;-62
2023/05/31 02:58:49;;;;;;;30.70;13.10;;;;;;;13.10;100.00;101354.44;8327189;28;20110;-59
2023/05/31 03:03:10;;;;;;;25.27;12.98;;;;;;;13.04;100.00;101350.44;8326537;28;20041;-59
2023/05/31 03:07:18;;;;;;;26.25;14.10;;;;;;;13.14;100.00;101351.31;8326846;28;20121;-59
2023/05/31 03:11:20;;;;;;;28.00;14.13;;;;;;;13.07;100.00;101354.72;8326670;28;20373;-59
2023/05/31 03:15:21;;;;;;;25.85;13.85;;;;;;;13.06;100.00;101363.88;8326509;28;20103;-59
2023/05/31 03:19:22;;;;;;;27.80;14.75;;;;;;;13.17;100.00;101366.47;8326559;28;20469;-59
2023/05/31 03:23:26;;;;;;;33.88;15.02;;;;;;;13.08;100.00;101365.44;8326270;28;20811;-62
2023/05/31 03:27:26;;;;;;;26.50;13.88;;;;;;;12.99;100.00;101373.53;8326243;28;20277;-62
2023/05/31 03:31:29;;;;;;;27.50;14.38;;;;;;;12.98;100.00;101358.22;8316092;28;20048;-62
2023/05/31 03:35:30;;;;;;;29.98;14.18;;;;;;;13.05;100.00;101356.72;8305981;28;20038;-60
2023/05/31 03:39:31;;;;;;;25.05;12.90;;;;;;;12.90;100.00;101353.44;8306566;28;20029;-59
2023/05/31 03:43:32;;;;;;;22.25;13.00;;;;;;;13.00;100.00;101353.56;8297857;28;20096;-59
2023/05/31 03:47:32;;;;;;;31.08;14.90;;;;;;;13.12;100.00;101347.03;8295948;28;20053;-59
2023/05/31 03:51:33;;;;;;;30.08;13.88;;;;;;;13.23;100.00;101357.78;8310678;28;20368;-59
2023/05/31 03:55:34;;;;;;;27.45;14.93;;;;;;;13.34;100.00;101347.69;8325359;28;20115;-59
2023/05/31 03:59:35;;;;;;;22.90;13.85;;;;;;;13.48;99.58;101354.59;8324171;28;20091;-59
2023/05/31 04:03:36;;;;;;;26.75;14.30;;;;;;;13.40;100.00;101357.13;8269093;28;20644;-59
2023/05/31 04:07:37;;;;;;;31.08;14.23;;;;;;;13.64;100.00;101361.19;8298298;28;20049;-59
2023/05/31 04:11:38;;;;;;;29.98;14.52;;;;;;;13.70;100.00;101359.78;8302101;28;20475;-59
2023/05/31 04:15:38;;;;;;;26.30;13.85;;;;;;;13.96;99.26;101366.41;8305988;28;20573;-59
2023/05/31 04:19:39;;;;;;;26.98;13.77;;;;;;;14.02;97.71;101370.41;8304364;28;20041;-59
2023/05/31 04:23:39;;;;;;;30.25;13.57;;;;;;;14.20;98.27;101364.13;8309702;28;20038;-59
2023/05/31 04:27:40;;;;;;;27.83;14.15;;;;;;;14.38;98.35;101357.00;8322368;28;20042;-59
2023/05/31 04:31:41;;;;;;;27.17;13.88;;;;;;;14.48;97.98;101357.84;8322301;28;20127;-59
2023/05/31 04:35:43;;;;;;;26.65;13.95;;;;;;;14.75;96.06;101355.22;8322958;28;20083;-59
2023/05/31 04:39:43;;;;;;;23.80;13.68;;;;;;;14.81;97.03;101349.19;8322450;28;20403;-59
2023/05/31 04:43:47;;;;;;;24.67;13.75;;;;;;;15.07;94.60;101355.69;8323406;28;20124;-60
2023/05/31 04:47:49;;;;;;;27.17;12.75;;;;;;;15.41;92.76;101364.19;8320993;28;20045;-60
2023/05/31 04:51:50;;;;;;;28.60;13.50;;;;;;;15.59;91.44;101355.03;8322046;28;20527;-59
2023/05/31 04:55:51;;;;;;;26.98;13.30;;;;;;;15.62;91.22;101357.47;8312730;28;20444;-59
2023/05/31 04:59:53;;;;;;;26.08;12.20;;;;;;;15.77;90.49;101369.56;8302883;28;20064;-59
2023/05/31 05:03:54;;;;;;;20.63;12.07;;;;;;;15.90;90.04;101368.34;8318847;28;20049;-59
2023/05/31 05:07:54;;;;;;;23.10;12.45;;;;;;;16.04;90.49;101367.81;8320692;28;20043;-59
2023/05/31 05:11:57;;;;;;;22.80;11.57;;;;;;;16.21;88.85;101369.69;8320823;28;20037;-59
2023/05/31 05:15:58;;;;;;;23.20;11.90;;;;;;;16.39;88.94;101370.53;8318476;28;20057;-61
2023/05/31 05:19:59;;;;;;;24.63;12.02;;;;;;;16.45;88.32;101373.53;8302940;28;20034;-61
2023/05/31 05:24:00;;;;;;;21.92;11.68;;;;;;;16.50;87.43;101381.25;8287479;28;20171;-61
2023/05/31 05:28:02;;;;;;;21.42;11.82;;;;;;;16.69;87.57;101378.34;8286393;28;20526;-62
2023/05/31 05:32:02;;;;;;;22.05;11.63;;;;;;;16.76;86.60;101383.00;8317599;28;20414;-59
2023/05/31 05:36:03;;;;;;;23.00;11.57;;;;;;;16.88;86.13;101380.84;8316584;28;20499;-61
2023/05/31 05:40:11;;;;;;;23.95;12.60;;;;;;;17.06;85.13;101389.88;8312860;28;20083;-61
2023/05/31 05:44:12;;;;;;;18.42;11.55;;;;;;;17.16;84.68;101375.06;8312189;28;20427;-61
2023/05/31 05:48:13;;;;;;;19.58;11.55;;;;;;;17.45;83.88;101380.22;8315833;28;20066;-61
2023/05/31 05:52:14;;;;;;;22.70;11.48;;;;;;;17.68;83.02;101373.13;8316469;28;20088;-61
2023/05/31 05:56:18;;;;;;;22.27;11.23;;;;;;;17.89;81.76;101376.28;8314190;28;20064;-61
2023/05/31 06:00:26;;;;;;;24.77;11.63;;;;;;;17.85;81.24;101366.69;8316386;28;20060;-61
2023/05/31 06:04:26;;;;;;;22.95;10.93;;;;;;;18.00;80.78;101381.44;8288593;28;20552;-61
2023/05/31 06:08:27;;;;;;;26.40;11.93;;;;;;;18.29;80.21;101381.81;8289991;28;20180;-61
2023/05/31 06:12:27;;;;;;;26.70;12.25;;;;;;;18.47;80.02;101379.81;8321427;28;20065;-61
2023/05/31 06:16:28;;;;;;;22.75;12.32;;;;;;;18.61;79.10;101379.16;8314576;28;20046;-61
2023/05/31 06:20:29;;;;;;;18.58;10.25;;;;;;;18.73;78.74;101385.97;8308561;28;20038;-61
2023/05/31 06:24:30;;;;;;;25.48;11.18;;;;;;;19.05;77.89;101385.97;8325687;28;20525;-60
2023/05/31 06:28:31;;;;;;;13.20;9.40;;;;;;;19.19;76.89;101387.13;8326510;28;20693;-61
2023/05/31 06:32:32;;;;;;;19.35;10.48;;;;;;;19.41;75.96;101386.41;8327210;28;20120;-61
2023/05/31 06:36:33;;;;;;;20.55;8.88;;;;;;;19.49;75.15;101391.88;8325086;28;20056;-61
2023/05/31 06:40:36;;;;;;;17.75;8.65;;;;;;;20.10;72.32;101382.81;8324879;28;20041;-61
2023/05/31 06:44:37;;;;;;;14.45;8.05;;;;;;;19.92;71.95;101385.00;8327025;28;20045;-58
2023/05/31 06:48:44;;;;;;;17.70;6.95;;;;;;;20.56;70.26;101381.84;8315404;28;20040;-59
2023/05/31 06:53:04;;;;;;;13.93;7.00;;;;;;;20.55;68.81;101377.38;8325267;28;20041;-58
2023/05/31 06:57:10;;;;;;;14.90;7.22;;;;;;;20.65;67.95;101388.97;8324595;28;20034;-58
2023/05/31 07:01:11;;;;;;;15.55;7.47;;;;;;;20.71;69.58;101377.25;8322950;28;20033;-59
2023/05/31 07:05:12;;;;;;;12.80;6.80;;;;;;;20.88;67.87;101379.66;8324279;28;20037;-58
2023/05/31 07:09:12;;;;;;;18.58;6.85;;;;;;;21.26;68.06;101383.28;8321616;28;20072;-58
2023/05/31 07:13:26;;;;;;;12.80;6.27;;;;;;;21.38;66.57;101376.25;8323269;28;20307;-59
2023/05/31 07:17:29;;;;;;;14.07;6.55;;;;;;;21.23;65.55;101372.63;8325003;28;20064;-59
2023/05/31 07:21:30;;;;;;;12.43;6.40;;;;;;;21.59;66.08;101379.06;8325354;28;20048;-58
2023/05/31 07:25:31;;;;;;;16.23;6.47;;;;;;;21.88;65.05;101373.56;8325039;28;20037;-59
2023/05/31 07:29:31;;;;;;;14.63;5.63;;;;;;;21.63;62.90;101374.91;8324835;28;20479;-59
2023/05/31 07:33:32;;;;;;;10.73;6.32;;;;;;;21.59;63.66;101379.06;8325175;28;20550;-59
2023/05/31 07:37:32;;;;;;;12.57;6.18;;;;;;;21.80;63.36;101370.91;8324872;28;20045;-59
2023/05/31 07:41:33;;;;;;;10.48;5.30;;;;;;;21.93;63.65;101371.09;8323244;28;20052;-59
2023/05/31 07:45:33;;;;;;;16.35;6.13;;;;;;;22.00;63.62;101372.03;8324409;28;20042;-59
2023/05/31 07:49:34;;;;;;;15.55;6.35;;;;;;;22.27;63.03;101362.16;8323145;28;20069;-59
2023/05/31 07:53:34;;;;;;;15.00;7.07;;;;;;;22.27;62.51;101364.91;8324303;28;20191;-59
2023/05/31 07:57:35;;;;;;;13.43;7.68;;;;;;;22.40;61.65;101362.28;8324437;28;20034;-59
2023/05/31 08:01:36;;;;;;;14.20;6.75;;;;;;;22.52;60.08;101361.63;8322323;28;20040;-59
2023/05/31 08:05:36;;;;;;;15.13;6.75;;;;;;;22.44;60.40;101363.59;8324250;28;20057;-59
2023/05/31 08:09:37;;;;;;;15.77;6.88;;;;;;;22.67;59.83;101354.13;8320814;28;20423;-59
2023/05/31 08:13:38;;;;;;;12.15;6.90;;;;;;;22.90;59.49;101360.25;8322391;28;20037;-59
2023/05/31 08:17:39;;;;;;;9.70;5.78;;;;;;;22.96;59.72;101356.69;8323645;28;20176;-59
2023/05/31 08:21:40;;;;;;;11.77;5.72;;;;;;;23.13;58.16;101355.34;8322500;28;20053;-59
2023/05/31 08:25:40;;;;;;;9.13;5.45;;;;;;;23.36;58.91;101354.25;8323246;28;20043;-59
2023/05/31 08:29:41;;;;;;;11.70;5.45;;;;;;;23.61;58.10;101344.38;8322613;28;20053;-59
2023/05/31 08:33:53;;;;;;;10.00;5.65;;;;;;;23.78;56.30;101343.00;8323782;28;20380;-58
2023/05/31 08:37:54;;;;;;;9.57;5.13;;;;;;;23.95;56.72;101347.97;8322738;28;20048;-58
2023/05/31 08:42:05;;;;;;;17.50;5.40;;;;;;;23.71;55.57;101337.44;8322596;28;20038;-58
2023/05/31 08:46:07;;;;;;;11.13;5.65;;;;;;;23.98;55.68;101342.03;8322599;28;20033;-58
2023/05/31 08:50:10;;;;;;;9.40;4.93;;;;;;;24.10;55.50;101329.31;8322962;28;20048;-58
2023/05/31 08:54:11;;;;;;;10.60;4.15;;;;;;;24.29;52.79;101331.28;8322826;28;20416;-59
2023/05/31 08:58:13;;;;;;;13.15;4.13;;;;;;;24.37;54.27;101335.75;8321564;28;20132;-59
2023/05/31 09:02:16;;;;;;;13.10;4.45;;;;;;;24.41;53.22;101331.50;8321477;28;20416;-60
2023/05/31 09:06:16;;;;;;;10.25;3.95;;;;;;;24.69;53.37;101326.66;8322822;28;20048;-59
2023/05/31 09:10:17;;;;;;;9.48;4.57;;;;;;;24.89;52.73;101317.28;8321683;28;20355;-59
2023/05/31 09:14:18;;;;;;;8.98;4.05;;;;;;;25.00;52.54;101313.00;8322298;28;20061;-59
2023/05/31 09:18:20;;;;;;;10.82;2.95;;;;;;;25.30;49.82;101319.75;8321606;28;20033;-59
2023/05/31 09:22:22;;;;;;;3.45;2.10;;;;;;;25.01;49.56;101310.03;8321725;28;20419;-59
2023/05/31 09:26:24;;;;;;;7.57;2.53;;;;;;;25.21;50.11;101314.66;8321358;28;20046;-58
2023/05/31 09:30:24;;;;;;;5.78;2.80;;;;;;;25.40;49.18;101298.03;8321961;28;20418;-59
2023/05/31 09:34:27;;;;;;;8.38;2.63;;;;;;;25.50;48.09;101301.22;8322371;28;20096;-58
2023/05/31 09:38:33;;;;;;;6.22;2.40;;;;;;;25.22;47.27;101300.59;8321556;28;20038;-59
2023/05/31 09:42:33;;;;;;;7.03;2.85;;;;;;;25.11;47.57;101283.81;8321466;28;20061;-58
2023/05/31 09:46:34;;;;;;;9.07;3.40;;;;;;;25.44;47.76;101282.72;8320628;28;20519;-59
2023/05/31 09:50:38;;;;;;;4.97;2.97;;;;;;;25.92;47.50;101281.16;8326156;28;20064;-59
2023/05/31 09:54:39;;;;;;;6.75;2.40;;;;;;;26.37;46.20;101277.28;8328660;28;20042;-58
2023/05/31 09:58:40;;;;;;;6.68;2.40;;;;;;;27.19;44.57;101257.53;8327940;28;20037;-58
2023/05/31 10:02:42;;;;;;;8.00;2.38;;;;;;;28.14;43.36;101271.50;8327157;28;20605;-58
2023/05/31 10:06:44;;;;;;;4.57;2.45;;;;;;;29.34;40.43;101259.78;8328103;28;20045;-59
2023/05/31 10:10:44;;;;;;;5.07;2.17;;;;;;;29.84;40.14;101255.28;8319616;28;20033;-58
2023/05/31 10:14:53;;;;;;;5.28;2.22;;;;;;;30.07;39.66;101255.16;8327707;28;20067;-59
2023/05/31 10:19:00;;;;;;;4.60;2.20;;;;;;;30.98;40.49;101256.78;8327752;28;20038;-59
2023/05/31 10:23:05;;;;;;;5.22;2.60;;;;;;;30.81;37.90;101251.22;8327280;28;20423;-59
2023/05/31 10:27:16;;;;;;;5.13;2.20;;;;;;;31.69;39.94;101251.09;8326957;28;20045;-58
2023/05/31 10:31:21;;;;;;;6.88;2.20;;;;;;;32.18;37.75;101241.59;8320815;28;20037;-59
2023/05/31 10:35:24;;;;;;;6.47;2.55;;;;;;;32.37;38.59;101237.31;8327381;28;20045;-59
2023/05/31 10:43:55;;;;;;;3.20;2.00;;;;;;;32.63;36.83;101224.38;8355305;27;20380;-60
2023/05/31 10:48:06;;;;;;;7.97;2.17;;;;;;;32.06;37.19;101226.91;8350296;28;20045;-60
2023/05/31 10:52:09;;;;;;;3.75;1.70;;;;;;;32.27;37.42;101213.94;8337113;28;20030;-59
2023/05/31 10:56:13;;;;;;;4.28;1.88;;;;;;;32.19;35.27;101216.13;8318746;28;20508;-59
2023/05/31 11:00:19;;;;;;;5.93;2.28;;;;;;;32.50;34.93;101211.66;8316754;28;20042;-61
2023/05/31 11:04:21;;;;;;;4.85;1.83;;;;;;;32.94;35.05;101207.53;8314838;28;20127;-59
2023/05/31 11:08:22;;;;;;;6.20;1.95;;;;;;;33.40;35.10;101203.88;8316776;28;20037;-60
2023/05/31 11:12:40;;;;;;;3.75;1.98;;;;;;;32.71;35.18;101201.44;8318781;28;20045;-60
2023/05/31 11:20:56;;;;;;;5.60;2.20;;;;;;;33.08;35.80;101191.91;8348609;27;20507;-60
2023/05/31 11:24:58;;;;;;;5.47;1.63;;;;;;;32.54;34.89;101193.22;8317152;28;20052;-59
2023/05/31 11:29:00;;;;;;;2.70;1.60;;;;;;;32.00;36.01;101186.00;8316645;28;20165;-60
2023/05/31 11:33:01;;;;;;;3.38;1.52;;;;;;;31.92;35.86;101180.84;8317424;28;20045;-60
2023/05/31 11:37:03;;;;;;;3.45;1.55;;;;;;;31.85;35.11;101180.25;8316804;28;20029;-61
2023/05/31 11:41:06;;;;;;;4.22;1.80;;;;;;;32.21;35.53;101179.47;8305920;28;20120;-61
2023/05/31 11:49:20;;;;;;;7.57;1.90;;;;;;;32.79;35.80;101176.59;8348581;27;20445;-62
2023/05/31 11:53:21;;;;;;;4.38;1.63;;;;;;;32.52;35.87;101163.78;8346007;28;20045;-62
2023/05/31 11:57:22;;;;;;;7.60;2.10;;;;;;;33.03;35.38;101151.81;8345643;28;20036;-61
2023/05/31 12:01:22;;;;;;;4.70;1.58;;;;;;;32.78;34.66;101149.66;8341550;28;20584;-62
2023/05/31 12:05:23;;;;;;;4.50;2.05;;;;;;;32.16;34.80;101159.81;8347691;28;20037;-61
2023/05/31 12:09:25;;;;;;;4.47;1.73;;;;;;;29.17;38.60;101150.19;8346979;28;20048;-61
2023/05/31 12:13:26;;;;;;;5.22;1.65;;;;;;;27.81;39.46;101145.16;8344593;28;20045;-61
2023/05/31 12:17:30;;;;;;;5.65;1.83;;;;;;;27.59;42.23;101138.41;8339697;28;20071;-61
2023/05/31 12:21:30;;;;;;;4.60;1.73;;;;;;;27.31;42.12;101129.84;8343683;28;20067;-61
2023/05/31 12:25:31;;;;;;;4.35;1.73;;;;;;;27.28;42.43;101127.56;8346661;28;20072;-61
2023/05/31 12:29:31;;;;;;;10.23;2.15;;;;;;;27.27;40.91;101131.41;8345392;28;20038;-62
2023/05/31 12:33:34;;;;;;;7.43;1.90;;;;;;;27.26;42.72;101126.97;8344013;28;20041;-61
2023/05/31 12:37:37;;;;;;;6.13;1.90;;;;;;;27.17;42.98;101120.00;8346071;28;20045;-61
2023/05/31 12:41:42;;;;;;;5.65;2.47;;;;;;;26.77;40.43;101108.53;8333731;28;20100;-62
2023/05/31 12:45:42;;;;;;;7.72;2.20;;;;;;;27.01;42.03;101115.09;8342739;28;20096;-61
2023/05/31 12:49:43;;;;;;;3.80;1.50;;;;;;;27.11;42.22;101101.50;8359058;28;20573;-61
2023/05/31 12:53:45;;;;;;;4.85;1.92;;;;;;;27.19;41.79;101107.56;8314532;28;20141;-61
2023/05/31 12:57:45;;;;;;;3.67;1.80;;;;;;;27.07;41.63;101090.00;8295629;28;20041;-62
2023/05/31 13:01:46;;;;;;;3.75;2.22;;;;;;;27.35;42.38;101089.44;8278610;28;20520;-61
2023/05/31 13:05:47;;;;;;;5.85;2.40;;;;;;;27.43;43.54;101081.63;8318132;28;20413;-61
2023/05/31 13:09:47;;;;;;;4.28;2.50;;;;;;;27.24;45.21;101092.97;8318743;28;20122;-61
2023/05/31 13:13:48;;;;;;;6.35;2.15;;;;;;;27.24;44.21;101076.31;8318308;28;20095;-61
2023/05/31 13:17:48;;;;;;;5.57;1.77;;;;;;;27.34;43.60;101076.63;8321432;28;20067;-61
2023/05/31 13:21:49;;;;;;;3.95;2.20;;;;;;;27.27;44.64;101075.88;8321946;28;20053;-61
2023/05/31 13:25:50;;;;;;;4.32;2.63;;;;;;;27.36;46.02;101075.31;8321523;28;20041;-61
2023/05/31 13:29:50;;;;;;;5.05;2.17;;;;;;;27.24;43.20;101070.75;8299732;28;20121;-61
2023/05/31 13:33:53;;;;;;;8.73;2.25;;;;;;;27.04;45.43;101062.69;8287367;28;20049;-61
2023/05/31 13:37:54;;;;;;;4.95;2.75;;;;;;;27.20;46.12;101059.25;8287897;28;20760;-61
2023/05/31 13:41:54;;;;;;;5.93;2.65;;;;;;;27.02;45.13;101056.56;8290078;28;20064;-61
2023/05/31 13:45:55;;;;;;;5.90;2.35;;;;;;;27.17;46.50;101058.91;8319064;28;20056;-61
2023/05/31 13:49:55;;;;;;;6.80;2.83;;;;;;;27.38;46.23;101050.91;8319775;28;20489;-58
2023/05/31 13:53:56;;;;;;;7.82;2.40;;;;;;;27.28;46.92;101038.69;8319441;28;20047;-58
2023/05/31 13:57:56;;;;;;;8.50;2.72;;;;;;;27.45;46.19;101056.38;8303987;28;20436;-58
2023/05/31 14:01:57;;;;;;;8.23;3.17;;;;;;;27.29;46.66;101041.22;8317538;28;20539;-58
2023/05/31 14:05:57;;;;;;;6.10;2.63;;;;;;;27.16;46.62;101046.94;8318973;28;20052;-59
2023/05/31 14:09:58;;;;;;;8.60;2.67;;;;;;;27.07;47.08;101030.88;8318858;28;20056;-59
2023/05/31 14:13:58;;;;;;;8.05;2.70;;;;;;;27.33;48.54;101036.03;8301508;28;20057;-59
2023/05/31 14:17:59;;;;;;;10.75;3.00;;;;;;;27.30;46.99;101030.97;8285567;28;20069;-58
2023/05/31 14:21:59;;;;;;;9.07;2.90;;;;;;;27.05;46.64;101027.47;8311165;28;20049;-59
2023/05/31 14:26:00;;;;;;;8.05;2.65;;;;;;;27.11;47.47;101020.97;8313691;28;20049;-59
2023/05/31 14:30:00;;;;;;;14.95;2.70;;;;;;;27.07;47.28;101019.75;8327182;28;20044;-58
2023/05/31 14:34:01;;;;;;;7.57;2.75;;;;;;;27.01;47.53;101017.94;8317872;28;20057;-58
2023/05/31 14:38:01;;;;;;;9.60;2.50;;;;;;;27.04;46.09;101014.69;8286681;28;20029;-58
2023/05/31 14:42:02;;;;;;;5.50;2.40;;;;;;;27.13;47.65;101029.91;8312603;28;20041;-58
2023/05/31 14:46:02;;;;;;;3.95;2.90;;;;;;;27.00;47.15;101019.00;8323097;28;20048;-58
2023/05/31 14:50:04;;;;;;;5.75;2.47;;;;;;;26.99;47.50;101009.84;8315869;28;20056;-58
2023/05/31 14:54:05;;;;;;;6.40;2.10;;;;;;;27.13;46.32;101021.56;8317735;28;20037;-58
2023/05/31 14:58:06;;;;;;;8.38;2.67;;;;;;;27.02;46.28;101017.69;8315658;28;20120;-58
2023/05/31 15:02:07;;;;;;;7.75;2.55;;;;;;;26.94;46.52;101003.28;8304220;28;20450;-58
2023/05/31 15:06:08;;;;;;;6.80;2.20;;;;;;;27.12;46.36;101009.63;8282439;28;20460;-58
2023/05/31 15:10:09;;;;;;;6.85;2.28;;;;;;;27.21;45.89;100997.09;8297342;28;20042;-58
2023/05/31 15:14:12;;;;;;;5.90;2.30;;;;;;;27.34;46.55;100993.28;8317325;28;20111;-58
2023/05/31 15:18:13;;;;;;;4.60;2.05;;;;;;;27.29;45.45;101002.34;8313941;28;20359;-59
2023/05/31 15:22:13;;;;;;;8.15;2.30;;;;;;;27.21;46.07;100994.34;8312974;28;20034;-60
2023/05/31 15:26:14;;;;;;;5.30;2.10;;;;;;;27.29;46.49;100995.97;8314367;28;20368;-59
2023/05/31 15:30:15;;;;;;;5.53;2.42;;;;;;;27.50;45.25;100999.00;8313941;28;20718;-59
2023/05/31 15:34:15;;;;;;;4.35;1.95;;;;;;;27.29;45.44;100996.78;8317097;28;20064;-58
2023/05/31 15:38:16;;;;;;;5.72;2.22;;;;;;;27.07;45.93;100995.59;8316642;28;20037;-58
2023/05/31 15:42:17;;;;;;;9.90;2.20;;;;;;;27.09;46.20;100987.91;8316478;28;20353;-61
2023/05/31 15:46:17;;;;;;;6.20;2.22;;;;;;;27.05;45.54;100977.50;8316789;28;20401;-60
2023/05/31 15:50:18;;;;;;;6.22;2.20;;;;;;;26.93;45.67;100968.28;8316471;28;20065;-60
2023/05/31 15:54:19;;;;;;;4.10;2.20;;;;;;;26.99;46.12;100976.53;8316994;28;20112;-61
2023/05/31 15:58:19;;;;;;;7.63;2.42;;;;;;;27.15;46.36;100974.97;8311560;28;20087;-61
2023/05/31 16:02:20;;;;;;;4.43;1.90;;;;;;;27.16;46.92;100979.44;8309134;28;20041;-62
2023/05/31 16:06:20;;;;;;;5.40;2.63;;;;;;;27.03;47.14;100974.97;8310849;28;20048;-63
2023/05/31 16:10:21;;;;;;;6.90;2.38;;;;;;;27.00;46.63;100980.13;8298609;28;20295;-61
2023/05/31 16:14:21;;;;;;;3.73;1.77;;;;;;;26.90;46.64;100960.44;8310792;28;20215;-62
2023/05/31 16:18:22;;;;;;;3.47;1.92;;;;;;;26.84;46.66;100949.19;8314583;28;20302;-62
2023/05/31 16:22:22;;;;;;;5.63;2.63;;;;;;;27.18;46.30;100955.06;8302103;28;20100;-62
2023/05/31 16:26:23;;;;;;;6.53;1.95;;;;;;;27.13;45.93;100957.69;8303350;28;20037;-62
2023/05/31 16:30:24;;;;;;;5.20;2.00;;;;;;;27.09;46.42;100959.28;8315939;28;20037;-62
2023/05/31 16:34:24;;;;;;;5.18;1.83;;;;;;;27.03;46.96;100954.66;8317971;28;20048;-59
2023/05/31 16:38:25;;;;;;;7.65;2.25;;;;;;;26.97;46.17;100958.38;8321410;28;20076;-62
2023/05/31 16:42:25;;;;;;;6.78;2.45;;;;;;;26.86;46.04;100950.88;8319824;28;20352;-62
2023/05/31 16:46:26;;;;;;;9.32;2.00;;;;;;;26.86;46.08;100948.94;8321723;28;20049;-62
2023/05/31 16:50:26;;;;;;;2.90;1.83;;;;;;;26.66;46.46;100952.00;8321649;28;20118;-62
2023/05/31 16:54:26;;;;;;;3.50;2.08;;;;;;;26.52;46.70;100953.25;8320977;28;20343;-62
2023/05/31 16:58:27;;;;;;;7.32;2.60;;;;;;;26.43;46.84;100951.88;8321032;28;20156;-62
2023/05/31 17:02:27;;;;;;;7.83;2.47;;;;;;;26.34;47.13;100947.72;8303122;28;20053;-61
2023/05/31 17:06:28;;;;;;;9.32;2.22;;;;;;;26.22;47.77;100937.63;8287423;28;20292;-60
2023/05/31 17:10:29;;;;;;;6.63;2.40;;;;;;;26.21;48.91;100947.88;8306772;28;20096;-59
2023/05/31 17:14:29;;;;;;;8.57;2.78;;;;;;;26.03;48.16;100956.19;8319164;28;20060;-60
2023/05/31 17:18:29;;;;;;;6.00;2.05;;;;;;;25.99;47.03;100938.34;8321516;28;20025;-60
2023/05/31 17:22:30;;;;;;;5.22;2.40;;;;;;;25.92;47.65;100940.28;8310289;28;20113;-61
2023/05/31 17:26:30;;;;;;;3.70;2.10;;;;;;;25.89;47.83;100937.97;8319639;28;20095;-60
2023/05/31 17:30:31;;;;;;;6.15;2.30;;;;;;;25.88;48.09;100941.84;8320002;28;20460;-60
2023/05/31 17:34:31;;;;;;;6.60;2.15;;;;;;;25.91;47.39;100941.38;8320802;28;20446;-60
2023/05/31 17:38:31;;;;;;;6.25;2.30;;;;;;;25.91;48.10;100944.16;8318073;28;20463;-61
2023/05/31 17:42:32;;;;;;;8.85;2.55;;;;;;;25.90;47.67;100934.16;8316089;28;20063;-61
2023/05/31 17:46:32;;;;;;;8.35;2.42;;;;;;;25.75;48.60;100933.69;8318475;28;20419;-61
2023/05/31 17:50:33;;;;;;;8.98;2.40;;;;;;;25.74;49.06;100934.72;8318407;28;20570;-61
2023/05/31 17:54:33;;;;;;;3.25;2.03;;;;;;;25.72;48.95;100931.38;8320269;28;20060;-60
2023/05/31 17:58:33;;;;;;;8.30;2.47;;;;;;;25.67;49.68;100931.19;8319664;28;20137;-60
2023/05/31 18:02:34;;;;;;;9.10;2.30;;;;;;;25.59;49.43;100931.50;8319964;28;20831;-61
2023/05/31 18:06:36;;;;;;;5.32;2.33;;;;;;;25.61;49.18;100943.19;8319966;28;20049;-61
2023/05/31 18:10:36;;;;;;;7.55;2.25;;;;;;;25.49;49.34;100930.31;8319785;28;20515;-61
2023/05/31 18:14:37;;;;;;;5.13;1.90;;;;;;;25.37;49.51;100932.97;8319741;28;20489;-60
2023/05/31 18:18:37;;;;;;;5.50;1.92;;;;;;;25.29;49.70;100933.25;8319014;28;20049;-61
2023/05/31 18:22:37;;;;;;;6.72;2.50;;;;;;;25.30;49.79;100942.38;8318248;28;20721;-60
2023/05/31 18:26:39;;;;;;;6.03;2.27;;;;;;;25.11;50.57;100932.31;8318546;28;20049;-60
2023/05/31 18:30:40;;;;;;;8.52;2.28;;;;;;;25.23;51.44;100942.44;8318724;28;20276;-64
2023/05/31 18:34:41;;;;;;;6.47;2.42;;;;;;;25.10;50.62;100931.47;8329064;28;20072;-61
2023/05/31 18:38:44;;;;;;;4.28;2.08;;;;;;;25.00;51.08;100931.97;8311043;28;20048;-61
2023/05/31 18:42:45;;;;;;;4.73;2.47;;;;;;;24.92;51.74;100939.69;8327114;28;20037;-61
2023/05/31 18:46:45;;;;;;;8.30;2.67;;;;;;;24.84;51.94;100937.19;8350409;28;20053;-61